createdAt,value
2018-06-15T00:02:24.200Z,8.03
2018-06-15T00:04:52.631Z,7.90
2018-06-15T00:07:20.828Z,7.53
2018-06-15T00:09:48.767Z,7.63
2018-06-15T00:12:16.936Z,6.67
2018-06-15T00:14:45.148Z,7.53
2018-06-15T00:17:13.335Z,8.10
2018-06-15T00:19:41.520Z,7.60
2018-06-15T00:22:09.713Z,7.73
2018-06-15T00:24:37.915Z,7.30
2018-06-15T00:27:06.323Z,7.73
2018-06-15T00:29:34.263Z,7.90
2018-06-15T00:32:02.497Z,7.07
2018-06-15T00:34:30.921Z,7.97
2018-06-15T00:36:59.102Z,7.70
2018-06-15T00:39:27.300Z,6.90
2018-06-15T00:41:55.493Z,7.17
2018-06-15T00:44:23.701Z,7.70
2018-06-15T00:46:51.884Z,7.80
2018-06-15T00:49:20.094Z,8.03
2018-06-15T00:51:48.281Z,7.50
2018-06-15T00:54:16.468Z,7.83
2018-06-15T00:56:55.977Z,8.23
2018-06-15T00:59:24.160Z,7.90
2018-06-15T01:01:52.357Z,7.80
2018-06-15T01:04:20.544Z,8.57
2018-06-15T01:06:48.749Z,7.87
2018-06-15T01:09:16.928Z,8.00
2018-06-15T01:11:45.126Z,8.50
2018-06-15T01:14:13.319Z,8.13
2018-06-15T01:16:41.709Z,7.80
2018-06-15T01:19:09.928Z,8.07
2018-06-15T01:21:38.124Z,7.93
2018-06-15T01:24:06.328Z,7.97
2018-06-15T01:26:34.544Z,8.50
2018-06-15T01:29:02.757Z,8.83
2018-06-15T01:31:31.136Z,9.43
2018-06-15T01:33:59.357Z,9.10
2018-06-15T01:36:27.621Z,9.23
2018-06-15T01:38:55.828Z,9.40
2018-06-15T01:41:24.246Z,8.70
2018-06-15T01:43:52.428Z,8.93
2018-06-15T01:46:20.623Z,9.00
2018-06-15T01:48:48.816Z,8.63
2018-06-15T01:51:17.007Z,8.83
2018-06-15T01:53:45.412Z,9.40
2018-06-15T01:56:13.952Z,9.40
2018-06-15T01:58:42.140Z,9.43
2018-06-15T02:01:10.335Z,9.57
2018-06-15T02:03:38.537Z,9.37
2018-06-15T02:06:06.733Z,9.17
2018-06-15T02:08:34.932Z,8.67
2018-06-15T02:11:03.250Z,8.80
2018-06-15T02:13:31.552Z,8.33
2018-06-15T02:15:59.782Z,9.00
2018-06-15T02:18:28.116Z,9.30
2018-06-15T02:20:56.308Z,8.33
2018-06-15T02:23:24.496Z,8.70
2018-06-15T02:25:52.681Z,9.00
2018-06-15T02:28:20.873Z,9.20
2018-06-15T02:30:49.243Z,9.00
2018-06-15T02:33:17.228Z,9.20
2018-06-15T02:35:45.600Z,9.57
2018-06-15T02:38:13.805Z,9.60
2018-06-15T02:40:42.140Z,9.20
2018-06-15T02:43:10.089Z,8.97
2018-06-15T02:45:38.273Z,8.93
2018-06-15T02:48:06.469Z,9.00
2018-06-15T02:50:34.674Z,9.73
2018-06-15T02:53:02.867Z,9.93
2018-06-15T02:55:31.068Z,9.37
2018-06-15T02:57:59.272Z,9.17
2018-06-15T03:00:27.472Z,9.17
2018-06-15T03:02:55.671Z,9.17
2018-06-15T03:05:23.868Z,9.00
2018-06-15T03:07:52.068Z,8.97
2018-06-15T03:10:20.276Z,9.20
2018-06-15T03:12:48.481Z,8.23
2018-06-15T03:15:16.701Z,8.90
2018-06-15T03:17:44.893Z,9.43
2018-06-15T03:20:13.089Z,9.53
2018-06-15T03:22:41.278Z,13.17
2018-06-15T03:25:09.499Z,10.00
2018-06-15T03:27:37.664Z,9.30
2018-06-15T03:30:05.944Z,10.33
2018-06-15T03:32:34.136Z,10.33
2018-06-15T03:35:02.337Z,9.93
2018-06-15T03:37:30.561Z,10.40
2018-06-15T03:39:58.760Z,10.23
2018-06-15T03:42:26.961Z,9.73
2018-06-15T03:44:55.184Z,9.73
2018-06-15T03:47:23.384Z,9.73
2018-06-15T03:49:51.580Z,10.47
2018-06-15T03:52:19.988Z,9.80
2018-06-15T03:54:48.218Z,9.87
2018-06-15T03:57:16.461Z,10.87
2018-06-15T03:59:44.677Z,10.80
2018-06-15T04:02:12.916Z,10.60
2018-06-15T04:04:41.113Z,10.00
2018-06-15T04:07:09.312Z,10.73
2018-06-15T04:09:37.852Z,9.47
2018-06-15T04:12:06.284Z,10.07
2018-06-15T04:14:34.452Z,10.60
2018-06-15T04:17:02.681Z,10.13
2018-06-15T04:19:30.951Z,10.27
2018-06-15T04:21:59.149Z,10.53
2018-06-15T04:24:27.508Z,9.43
2018-06-15T04:26:55.696Z,10.30
2018-06-15T04:29:23.883Z,9.93
2018-06-15T04:31:52.081Z,10.20
2018-06-15T04:34:20.188Z,12.00
2018-06-15T04:36:48.616Z,11.30
2018-06-15T04:39:16.825Z,10.10
2018-06-15T04:41:45.021Z,11.70
2018-06-15T04:44:13.445Z,12.73
2018-06-15T04:46:41.683Z,10.33
2018-06-15T04:49:09.904Z,10.60
2018-06-15T04:51:38.081Z,11.37
2018-06-15T04:54:06.272Z,10.30
2018-06-15T04:56:34.231Z,10.97
2018-06-15T04:59:02.424Z,10.53
2018-06-15T05:01:30.629Z,11.10
2018-06-15T05:03:58.832Z,10.60
2018-06-15T05:06:27.028Z,10.10
2018-06-15T05:08:55.237Z,10.23
2018-06-15T05:11:23.428Z,10.03
2018-06-15T05:13:51.620Z,10.17
2018-06-15T05:16:19.856Z,9.73
2018-06-15T05:18:48.053Z,10.33
2018-06-15T05:21:16.261Z,10.00
2018-06-15T05:23:44.440Z,9.93
2018-06-15T05:26:12.664Z,9.73
2018-06-15T05:28:40.853Z,9.73
2018-06-15T05:31:09.047Z,10.00
2018-06-15T05:33:37.404Z,10.40
2018-06-15T05:36:07.545Z,9.80
2018-06-15T05:38:35.744Z,10.57
2018-06-15T05:41:03.945Z,10.77
2018-06-15T05:43:32.353Z,10.53
2018-06-15T05:46:00.548Z,10.60
2018-06-15T05:48:28.769Z,11.03
2018-06-15T05:50:56.952Z,11.53
2018-06-15T05:53:25.160Z,11.50
2018-06-15T05:55:53.365Z,11.00
2018-06-15T05:58:21.556Z,10.70
2018-06-15T06:00:49.752Z,11.17
2018-06-15T06:03:20.876Z,11.13
2018-06-15T06:05:49.649Z,12.27
2018-06-15T06:08:20.093Z,13.37
2018-06-15T06:10:48.869Z,11.83
2018-06-15T06:13:17.149Z,13.03
2018-06-15T06:15:45.524Z,12.03
2018-06-15T06:18:13.725Z,12.37
2018-06-15T06:20:41.900Z,13.00
2018-06-15T06:23:10.104Z,13.00
2018-06-15T06:25:38.292Z,11.83
2018-06-15T06:28:06.489Z,12.07
2018-06-15T06:30:34.448Z,12.97
2018-06-15T06:33:02.629Z,13.40
2018-06-15T06:35:30.835Z,13.20
2018-06-15T06:37:59.071Z,12.97
2018-06-15T06:40:27.236Z,13.30
2018-06-15T06:42:55.424Z,15.03
2018-06-15T06:45:23.632Z,16.03
2018-06-15T06:47:51.821Z,15.83
2018-06-15T06:50:20.012Z,14.60
2018-06-15T06:52:48.368Z,13.57
2018-06-15T06:55:16.564Z,16.80
2018-06-15T06:57:44.765Z,15.80
2018-06-15T07:00:13.174Z,14.80
2018-06-15T07:02:41.395Z,14.77
2018-06-15T07:05:09.617Z,15.20
2018-06-15T07:07:37.819Z,15.83
2018-06-15T07:10:06.201Z,15.83
2018-06-15T07:12:34.422Z,14.80
2018-06-15T07:15:02.620Z,16.23
2018-06-15T07:17:31.041Z,15.23
2018-06-15T07:19:59.254Z,26.40
2018-06-15T07:22:27.497Z,17.30
2018-06-15T07:24:55.706Z,17.87
2018-06-15T07:27:24.121Z,17.00
2018-06-15T07:29:52.318Z,16.67
2018-06-15T07:32:20.525Z,17.03
2018-06-15T07:34:48.728Z,17.27
2018-06-15T07:37:17.161Z,17.00
2018-06-15T07:39:45.356Z,16.07
2018-06-15T07:42:13.558Z,17.70
2018-06-15T07:44:41.841Z,17.87
2018-06-15T07:47:10.231Z,17.83
2018-06-15T07:49:38.516Z,20.23
2018-06-15T07:52:06.792Z,20.07
2018-06-15T07:54:35.343Z,18.50
2018-06-15T07:57:03.760Z,16.87
2018-06-15T07:59:32.193Z,17.83
2018-06-15T08:02:00.434Z,17.47
2018-06-15T08:04:28.812Z,16.80
2018-06-15T08:06:57.181Z,17.20
2018-06-15T08:09:25.482Z,16.60
2018-06-15T08:11:54.221Z,17.13
2018-06-15T08:14:23.097Z,17.33
2018-06-15T08:16:51.289Z,16.90
2018-06-15T08:19:19.577Z,17.63
2018-06-15T08:21:48.156Z,15.83
2018-06-15T08:24:16.683Z,17.00
2018-06-15T08:26:45.021Z,16.13
2018-06-15T08:29:13.291Z,16.93
2018-06-15T08:31:41.648Z,17.93
2018-06-15T08:34:10.069Z,16.37
2018-06-15T08:36:38.732Z,15.47
2018-06-15T08:39:09.587Z,15.83
2018-06-15T08:41:38.283Z,17.17
2018-06-15T08:44:07.175Z,15.97
2018-06-15T08:46:35.612Z,15.83
2018-06-15T08:49:03.967Z,16.23
2018-06-15T08:51:32.285Z,16.20
2018-06-15T08:54:00.837Z,15.13
2018-06-15T08:56:29.309Z,15.83
2018-06-15T08:58:57.704Z,16.47
2018-06-15T09:01:26.555Z,17.87
2018-06-15T09:03:55.550Z,16.63
2018-06-15T09:06:23.775Z,15.77
2018-06-15T09:08:52.537Z,19.40
2018-06-15T09:11:21.208Z,18.03
2018-06-15T09:13:50.029Z,17.07
2018-06-15T09:16:18.557Z,17.10
2018-06-15T09:18:47.077Z,14.77
2018-06-15T09:21:15.944Z,14.97
2018-06-15T09:23:44.538Z,14.90
2018-06-15T09:26:12.983Z,15.93
2018-06-15T09:28:41.937Z,16.77
2018-06-15T09:31:10.323Z,16.00
2018-06-15T09:33:39.198Z,14.60
2018-06-15T09:36:07.560Z,14.17
2018-06-15T09:38:36.218Z,14.73
2018-06-15T09:41:05.740Z,14.23
2018-06-15T09:43:34.505Z,15.33
2018-06-15T09:46:03.244Z,14.00
2018-06-15T09:48:31.725Z,15.20
2018-06-15T09:50:59.966Z,15.60
2018-06-15T09:53:28.624Z,14.87
2018-06-15T09:55:57.595Z,14.10
2018-06-15T09:58:26.969Z,14.50
2018-06-15T10:01:00.704Z,15.07
2018-06-15T10:03:28.907Z,14.30
2018-06-15T10:05:57.235Z,12.70
2018-06-15T10:08:25.464Z,14.33
2018-06-15T10:10:53.660Z,13.30
2018-06-15T10:13:21.876Z,18.70
2018-06-15T10:15:50.224Z,13.30
2018-06-15T10:18:18.425Z,13.77
2018-06-15T10:20:46.649Z,12.47
2018-06-15T10:23:14.603Z,12.53
2018-06-15T10:25:42.810Z,12.80
2018-06-15T10:28:11.017Z,11.23
2018-06-15T10:30:39.553Z,10.50
2018-06-15T10:33:08.056Z,10.30
2018-06-15T10:35:36.201Z,10.70
2018-06-15T10:38:04.668Z,11.67
2018-06-15T10:40:33.089Z,11.00
2018-06-15T10:43:01.281Z,10.90
2018-06-15T10:45:29.485Z,10.77
2018-06-15T10:47:57.672Z,10.40
2018-06-15T10:50:25.900Z,11.00
2018-06-15T10:52:54.379Z,11.20
2018-06-15T10:55:22.692Z,12.53
2018-06-15T10:57:50.888Z,10.80
2018-06-15T11:00:19.096Z,10.37
2018-06-15T11:02:47.572Z,11.33
2018-06-15T11:05:15.768Z,10.50
2018-06-15T11:07:43.967Z,11.47
2018-06-15T11:10:12.285Z,14.33
2018-06-15T11:12:40.664Z,10.27
2018-06-15T11:15:08.856Z,10.13
2018-06-15T11:17:37.080Z,10.27
2018-06-15T11:20:05.785Z,10.07
2018-06-15T11:22:34.004Z,9.57
2018-06-15T11:25:02.197Z,9.97
2018-06-15T11:27:30.405Z,10.00
2018-06-15T11:29:58.375Z,10.37
2018-06-15T11:32:26.594Z,10.00
2018-06-15T11:34:54.841Z,10.40
2018-06-15T11:37:23.032Z,10.23
2018-06-15T11:39:51.217Z,9.83
2018-06-15T11:42:19.413Z,10.07
2018-06-15T11:44:47.628Z,11.33
2018-06-15T11:47:15.820Z,10.03
2018-06-15T11:49:44.199Z,10.10
2018-06-15T11:52:12.400Z,9.33
2018-06-15T11:54:40.580Z,9.53
2018-06-15T11:57:08.821Z,9.43
2018-06-15T11:59:37.173Z,9.60
2018-06-15T12:02:06.250Z,9.00
2018-06-15T12:04:34.442Z,9.40
2018-06-15T12:07:02.697Z,9.70
2018-06-15T12:09:31.293Z,9.80
2018-06-15T12:12:00.121Z,10.33
2018-06-15T12:14:28.620Z,10.67
2018-06-15T12:16:56.999Z,10.30
2018-06-15T12:19:25.762Z,9.50
2018-06-15T12:21:53.980Z,9.97
2018-06-15T12:24:22.177Z,10.33
2018-06-15T12:26:50.384Z,10.07
2018-06-15T12:29:18.565Z,10.20
2018-06-15T12:31:46.748Z,9.90
2018-06-15T12:34:14.994Z,9.50
2018-06-15T12:36:43.129Z,9.97
2018-06-15T12:39:11.539Z,9.73
2018-06-15T12:41:39.512Z,9.70
2018-06-15T12:44:07.873Z,9.67
2018-06-15T12:46:36.070Z,11.20
2018-06-15T12:49:04.460Z,9.67
2018-06-15T12:51:32.789Z,9.70
2018-06-15T12:54:01.365Z,10.27
2018-06-15T12:56:29.560Z,10.03
2018-06-15T12:58:58.332Z,10.20
2018-06-15T13:01:26.563Z,10.13
2018-06-15T13:03:55.451Z,11.03
2018-06-15T13:06:23.720Z,10.33
2018-06-15T13:08:52.323Z,9.97
2018-06-15T13:11:20.981Z,10.27
2018-06-15T13:13:49.301Z,10.10
2018-06-15T13:16:17.596Z,9.00
2018-06-15T13:18:46.457Z,9.00
2018-06-15T13:21:14.862Z,9.47
2018-06-15T13:23:43.205Z,7.80
2018-06-15T13:26:11.828Z,8.07
2018-06-15T13:28:40.771Z,8.57
2018-06-15T13:31:09.083Z,7.63
2018-06-15T13:33:37.260Z,8.13
2018-06-15T13:36:05.804Z,9.20
2018-06-15T13:38:34.368Z,8.60
2018-06-15T13:41:02.633Z,8.50
2018-06-15T13:43:30.907Z,9.60
2018-06-15T13:45:59.100Z,9.60
2018-06-15T13:48:28.172Z,7.67
2018-06-15T13:50:56.893Z,9.70
2018-06-15T13:53:25.173Z,8.13
2018-06-15T13:55:53.440Z,7.23
2018-06-15T13:58:22.019Z,7.30
2018-06-15T14:00:51.017Z,6.97
2018-06-15T14:03:19.963Z,6.53
2018-06-15T14:05:48.796Z,6.17
2018-06-15T14:08:17.182Z,7.20
2018-06-15T14:10:45.547Z,6.73
2018-06-15T14:13:14.117Z,6.87
2018-06-15T14:15:42.307Z,6.63
2018-06-15T14:18:10.660Z,6.60
2018-06-15T14:20:38.937Z,6.17
2018-06-15T14:23:07.297Z,7.03
2018-06-15T14:25:35.525Z,6.37
2018-06-15T14:28:03.996Z,7.60
2018-06-15T14:30:32.184Z,7.20
2018-06-15T14:33:00.393Z,6.70
2018-06-15T14:35:29.010Z,6.10
2018-06-15T14:37:57.104Z,18.83
2018-06-15T14:40:25.332Z,7.70
2018-06-15T14:42:53.508Z,7.30
2018-06-15T14:45:21.932Z,7.20
2018-06-15T14:47:50.147Z,6.80
2018-06-15T14:50:18.335Z,7.10
2018-06-15T14:52:46.617Z,7.07
2018-06-15T14:55:14.941Z,6.97
2018-06-15T14:57:43.239Z,6.80
2018-06-15T15:00:11.529Z,7.20
2018-06-15T15:02:39.756Z,8.47
2018-06-15T15:05:08.142Z,11.83
2018-06-15T15:07:36.517Z,10.13
2018-06-15T15:10:05.332Z,7.60
2018-06-15T15:12:33.688Z,7.20
2018-06-15T15:15:02.259Z,7.60
2018-06-15T15:17:30.460Z,7.53
2018-06-15T15:19:58.716Z,7.90
2018-06-15T15:22:26.957Z,7.60
2018-06-15T15:24:55.861Z,7.77
2018-06-15T15:27:24.202Z,7.47
2018-06-15T15:29:52.737Z,7.93
2018-06-15T15:32:21.076Z,7.50
2018-06-15T15:34:49.369Z,7.53
2018-06-15T15:37:18.013Z,8.30
2018-06-15T15:39:46.559Z,9.43
2018-06-15T15:42:15.038Z,9.23
2018-06-15T15:44:43.350Z,13.13
2018-06-15T15:47:11.676Z,8.13
2018-06-15T15:49:39.941Z,8.13
2018-06-15T15:52:08.235Z,7.77
2018-06-15T15:54:36.535Z,7.80
2018-06-15T15:57:05.119Z,8.70
2018-06-15T15:59:33.653Z,12.77
2018-06-15T16:02:02.081Z,9.43
2018-06-15T16:04:30.486Z,12.87
2018-06-15T16:06:59.248Z,8.87
2018-06-15T16:09:27.853Z,7.57
2018-06-15T16:11:56.539Z,7.63
2018-06-15T16:14:24.886Z,7.67
2018-06-15T16:16:53.258Z,8.43
2018-06-15T16:19:21.616Z,7.27
2018-06-15T16:21:49.941Z,10.23
2018-06-15T16:24:18.294Z,8.00
2018-06-15T16:26:46.781Z,7.60
2018-06-15T16:29:15.402Z,7.07
2018-06-15T16:31:43.704Z,7.80
2018-06-15T16:34:12.081Z,8.93
2018-06-15T16:36:40.396Z,7.70
2018-06-15T16:39:09.487Z,7.90
2018-06-15T16:41:38.609Z,8.57
2018-06-15T16:44:07.068Z,7.50
2018-06-15T16:46:35.322Z,7.23
2018-06-15T16:49:03.528Z,7.80
2018-06-15T16:51:31.704Z,7.70
2018-06-15T16:53:59.889Z,7.83
2018-06-15T16:56:28.075Z,7.40
2018-06-15T16:58:56.293Z,7.23
2018-06-15T17:01:24.484Z,7.90
2018-06-15T17:03:52.684Z,7.10
2018-06-15T17:06:21.025Z,7.17
2018-06-15T17:08:49.508Z,7.30
2018-06-15T17:11:17.708Z,7.70
2018-06-15T17:13:45.883Z,7.70
2018-06-15T17:16:14.129Z,8.33
2018-06-15T17:18:42.265Z,9.43
2018-06-15T17:21:10.465Z,12.80
2018-06-15T17:23:38.654Z,8.83
2018-06-15T17:26:06.852Z,7.60
2018-06-15T17:28:35.038Z,7.63
2018-06-15T17:31:03.231Z,7.33
2018-06-15T17:33:31.412Z,7.27
2018-06-15T17:35:59.604Z,7.53
2018-06-15T17:38:27.787Z,7.20
2018-06-15T17:40:56.160Z,7.13
2018-06-15T17:43:24.124Z,7.70
2018-06-15T17:45:52.316Z,7.53
2018-06-15T17:48:20.523Z,7.53
2018-06-15T17:50:48.705Z,6.80
2018-06-15T17:53:16.898Z,7.40
2018-06-15T17:55:45.077Z,7.70
2018-06-15T17:58:13.271Z,14.80
2018-06-15T18:00:41.544Z,10.50
2018-06-15T18:03:09.928Z,7.83
2018-06-15T18:05:38.449Z,7.80
2018-06-15T18:08:06.367Z,7.73
2018-06-15T18:10:34.543Z,7.70
2018-06-15T18:13:02.716Z,7.87
2018-06-15T18:15:30.917Z,11.50
2018-06-15T18:17:59.113Z,8.40
2018-06-15T18:20:27.385Z,7.33
2018-06-15T18:22:55.566Z,7.90
2018-06-15T18:25:23.868Z,7.33
2018-06-15T18:27:52.060Z,8.07
2018-06-15T18:30:20.248Z,8.00
2018-06-15T18:32:48.452Z,7.70
2018-06-15T18:35:16.628Z,7.93
2018-06-15T18:37:44.821Z,7.30
2018-06-15T18:40:13.021Z,7.30
2018-06-15T18:42:41.188Z,7.27
2018-06-15T18:45:09.383Z,7.33
2018-06-15T18:47:37.564Z,7.60
2018-06-15T18:50:06.048Z,8.40
2018-06-15T18:52:34.242Z,7.40
2018-06-15T18:55:02.433Z,7.33
2018-06-15T18:57:30.624Z,7.63
2018-06-15T18:59:58.824Z,7.93
2018-06-15T19:02:27.011Z,7.97
2018-06-15T19:04:55.245Z,7.73
2018-06-15T19:07:23.432Z,8.20
2018-06-15T19:09:51.974Z,8.10
2018-06-15T19:12:20.162Z,7.43
2018-06-15T19:14:48.373Z,8.30
2018-06-15T19:17:16.571Z,8.13
2018-06-15T19:19:44.848Z,9.87
2018-06-15T19:22:12.828Z,8.70
2018-06-15T19:24:41.018Z,8.17
2018-06-15T19:27:09.242Z,8.63
2018-06-15T19:29:37.445Z,9.00
2018-06-15T19:32:05.651Z,8.83
2018-06-15T19:34:33.876Z,8.70
2018-06-15T19:37:02.053Z,8.70
2018-06-15T19:39:30.255Z,9.90
2018-06-15T19:41:58.453Z,10.90
2018-06-15T19:44:26.637Z,10.70
2018-06-15T19:46:54.824Z,10.80
2018-06-15T19:49:23.024Z,10.53
2018-06-15T19:51:51.216Z,11.03
2018-06-15T19:54:19.408Z,10.03
2018-06-15T19:56:47.617Z,10.20
2018-06-15T19:59:15.809Z,10.00
2018-06-15T20:01:44.003Z,9.93
2018-06-15T20:04:12.197Z,10.93
2018-06-15T20:06:40.384Z,9.73
2018-06-15T20:09:08.929Z,9.90
2018-06-15T20:11:37.628Z,10.07
2018-06-15T20:14:05.860Z,11.80
2018-06-15T20:16:34.045Z,10.63
2018-06-15T20:19:02.578Z,11.63
2018-06-15T20:21:30.932Z,10.63
2018-06-15T20:23:58.977Z,10.40
2018-06-15T20:26:27.156Z,10.40
2018-06-15T20:28:55.352Z,10.30
2018-06-15T20:31:23.545Z,11.30
2018-06-15T20:33:51.968Z,11.17
2018-06-15T20:36:20.188Z,11.13
2018-06-15T20:38:48.559Z,12.20
2018-06-15T20:41:16.744Z,14.67
2018-06-15T20:43:44.950Z,11.90
2018-06-15T20:46:13.132Z,11.40
2018-06-15T20:48:41.332Z,10.30
2018-06-15T20:51:09.520Z,10.67
2018-06-15T20:53:37.711Z,10.87
2018-06-15T20:56:05.958Z,11.00
2018-06-15T20:58:34.203Z,10.33
2018-06-15T21:01:02.369Z,11.33
2018-06-15T21:03:30.568Z,11.63
2018-06-15T21:05:58.761Z,9.83
2018-06-15T21:08:26.948Z,10.10
2018-06-15T21:10:55.145Z,10.23
2018-06-15T21:13:23.342Z,10.43
2018-06-15T21:15:51.540Z,11.80
2018-06-15T21:18:19.728Z,11.40
2018-06-15T21:20:47.945Z,10.17
2018-06-15T21:23:16.134Z,9.87
2018-06-15T21:25:44.324Z,11.47
2018-06-15T21:28:12.526Z,14.10
2018-06-15T21:30:40.721Z,12.27
2018-06-15T21:33:08.921Z,10.37
2018-06-15T21:35:37.108Z,10.43
2018-06-15T21:38:05.784Z,10.27
2018-06-15T21:40:33.993Z,10.83
2018-06-15T21:43:02.188Z,9.83
2018-06-15T21:45:30.380Z,9.93
2018-06-15T21:47:58.586Z,9.90
2018-06-15T21:50:26.846Z,10.27
2018-06-15T21:52:54.973Z,10.93
2018-06-15T21:55:23.168Z,10.17
2018-06-15T21:57:51.107Z,10.80
2018-06-15T22:00:19.308Z,10.47
2018-06-15T22:02:47.297Z,10.80
2018-06-15T22:05:15.509Z,11.13
2018-06-15T22:07:43.693Z,10.97
2018-06-15T22:10:12.105Z,10.30
2018-06-15T22:12:40.325Z,10.57
2018-06-15T22:15:08.540Z,10.13
2018-06-15T22:17:36.759Z,10.47
2018-06-15T22:20:04.944Z,10.50
2018-06-15T22:22:33.142Z,9.93
2018-06-15T22:25:01.337Z,10.70
2018-06-15T22:27:29.536Z,13.30
2018-06-15T22:29:57.724Z,11.77
2018-06-15T22:32:25.962Z,9.80
2018-06-15T22:34:54.148Z,11.10
2018-06-15T22:37:22.137Z,10.17
2018-06-15T22:39:50.328Z,10.50
2018-06-15T22:42:18.525Z,10.80
2018-06-15T22:44:46.719Z,10.53
2018-06-15T22:47:14.932Z,10.57
2018-06-15T22:49:43.120Z,10.47
2018-06-15T22:52:11.317Z,10.70
2018-06-15T22:54:46.180Z,11.30
2018-06-15T22:57:14.381Z,11.03
2018-06-15T22:59:42.572Z,10.90
2018-06-15T23:02:11.265Z,10.50
2018-06-15T23:04:39.445Z,10.93
2018-06-15T23:07:07.665Z,11.03
2018-06-15T23:09:35.848Z,12.83
2018-06-15T23:12:04.074Z,11.50
2018-06-15T23:14:32.284Z,13.10
2018-06-15T23:17:00.468Z,12.73
2018-06-15T23:19:28.667Z,12.13
2018-06-15T23:21:56.852Z,12.33
2018-06-15T23:24:25.066Z,11.70
2018-06-15T23:26:53.273Z,12.20
2018-06-15T23:29:21.487Z,11.10
2018-06-15T23:31:49.684Z,10.80
2018-06-15T23:34:17.883Z,11.20
2018-06-15T23:36:46.076Z,10.87
2018-06-15T23:39:14.269Z,11.60
2018-06-15T23:41:42.469Z,10.60
2018-06-15T23:44:10.656Z,10.37
2018-06-15T23:46:38.840Z,10.80
2018-06-15T23:49:07.053Z,10.47
2018-06-15T23:51:35.298Z,10.53
2018-06-15T23:54:03.466Z,10.13
2018-06-15T23:56:31.661Z,11.07
2018-06-15T23:58:59.889Z,12.33
